La Sarnosa, Argentina
Current Conditions -  °F | °C
As of 4:00 PM on Thursday 23 Oct 2014 (Local Time) from SARC Reporting Station
Broken Clouds Broken Clouds  
Wind Chill: 33°   Ceiling: 20000
Heat Index: 33°   Visibility: 6mi
Dew Point: 13°   Wind: 9mph
Humidity: 29%   Direction: 340°NNW
Pressure: 29.85"   Gusts: NA
Location:  29.23°S, 60.42°W
Report Text: SARC 231900Z 34008KT 9000 FEW025 BKN20033/13 Q1011
Loading
Personal Weather Stations






























Interactive Weather Map
Tropical Storm Tracking
New forecast layout! Learn more

10-Day Weather Forecast

Advertisements
Track Severe Weather on mobile